createdAt,value
2022-12-14T00:00:42.703Z,-6.33
2022-12-14T00:03:12.059Z,-6.37
2022-12-14T00:05:42.926Z,-6.39
2022-12-14T00:08:12.056Z,-6.46
2022-12-14T00:10:42.139Z,-6.53
2022-12-14T00:13:15.809Z,-6.52
2022-12-14T00:15:44.422Z,-6.65
2022-12-14T00:18:16.696Z,-6.72
2022-12-14T00:20:48.103Z,-6.66
2022-12-14T00:23:16.771Z,-6.60
2022-12-14T00:25:45.299Z,-6.43
2022-12-14T00:28:17.911Z,-6.47
2022-12-14T00:30:46.462Z,-6.37
2022-12-14T00:33:15.150Z,-6.32
2022-12-14T00:35:43.957Z,-6.18
2022-12-14T00:38:14.234Z,-6.21
2022-12-14T00:40:42.892Z,-6.32
2022-12-14T00:43:12.273Z,-6.39
2022-12-14T00:45:45.646Z,-6.50
2022-12-14T00:48:15.810Z,-6.43
2022-12-14T00:50:48.796Z,-6.37
2022-12-14T00:53:19.917Z,-6.38
2022-12-14T00:55:50.144Z,-6.32
2022-12-14T00:58:24.843Z,-6.36
2022-12-14T01:01:01.963Z,-6.28
2022-12-14T01:03:31.535Z,-6.45
2022-12-14T01:06:00.667Z,-6.46
2022-12-14T01:08:35.964Z,-6.45
2022-12-14T01:11:06.792Z,-6.23
2022-12-14T01:13:36.204Z,-6.27
2022-12-14T01:16:07.505Z,-6.35
2022-12-14T01:18:37.404Z,-6.37
2022-12-14T01:21:15.698Z,-6.38
2022-12-14T01:23:47.416Z,-6.43
2022-12-14T01:26:19.717Z,-6.46
2022-12-14T01:28:53.618Z,-6.42
2022-12-14T01:31:29.254Z,-6.14
2022-12-14T01:33:58.437Z,-6.09
2022-12-14T01:36:30.429Z,-6.18
2022-12-14T01:39:06.853Z,-6.30
2022-12-14T01:41:39.802Z,-6.35
2022-12-14T01:44:53.360Z,-6.33
2022-12-14T01:47:29.915Z,-6.32
2022-12-14T01:50:06.920Z,-6.30
2022-12-14T01:52:42.020Z,-6.21
2022-12-14T01:55:19.484Z,-6.08
2022-12-14T01:57:54.879Z,-5.97
2022-12-14T02:00:24.644Z,-5.96
2022-12-14T02:03:03.272Z,-6.01
2022-12-14T02:05:35.546Z,-6.05
2022-12-14T02:08:08.838Z,-6.03
2022-12-14T02:10:39.393Z,-6.15
2022-12-14T02:13:17.710Z,-6.18
2022-12-14T02:15:48.357Z,-6.11
2022-12-14T02:18:23.749Z,-6.08
2022-12-14T02:21:20.424Z,-6.05
2022-12-14T02:24:19.234Z,-6.16
2022-12-14T02:27:23.793Z,-6.22
2022-12-14T02:30:08.094Z,-6.26
2022-12-14T02:33:08.927Z,-6.40
2022-12-14T02:35:49.858Z,-6.44
2022-12-14T02:38:47.820Z,-6.53
2022-12-14T02:41:27.189Z,-6.51
2022-12-14T02:44:12.348Z,-6.45
2022-12-14T02:46:50.501Z,-6.42
2022-12-14T02:49:49.393Z,-6.55
2022-12-14T02:52:37.407Z,-6.54
2022-12-14T02:55:15.508Z,-6.54
2022-12-14T02:57:54.528Z,-6.50
2022-12-14T03:00:24.985Z,-6.45
2022-12-14T03:02:56.626Z,-6.59
2022-12-14T03:05:25.881Z,-6.74
2022-12-14T03:07:58.829Z,-6.79
2022-12-14T03:10:40.666Z,-6.86
2022-12-14T03:13:21.169Z,-6.77
2022-12-14T03:15:58.575Z,-6.80
2022-12-14T03:18:36.719Z,-6.81
2022-12-14T03:21:12.729Z,-6.88
2022-12-14T03:23:48.788Z,-6.99
2022-12-14T03:26:26.062Z,-6.95
2022-12-14T03:29:02.329Z,-7.05
2022-12-14T03:31:42.918Z,-7.05
2022-12-14T03:34:25.931Z,-7.08
2022-12-14T03:37:02.465Z,-7.13
2022-12-14T03:39:36.949Z,-7.15
2022-12-14T03:42:18.995Z,-7.18
2022-12-14T03:45:00.579Z,-7.13
2022-12-14T03:47:55.469Z,-7.27
2022-12-14T03:50:35.653Z,-7.30
2022-12-14T03:53:13.590Z,-7.36
2022-12-14T03:55:57.485Z,-7.38
2022-12-14T03:58:39.761Z,-7.45
2022-12-14T04:01:18.789Z,-7.56
2022-12-14T04:03:54.336Z,-7.57
2022-12-14T04:06:37.644Z,-7.61
2022-12-14T04:09:24.395Z,-7.61
2022-12-14T04:12:21.414Z,-7.69
2022-12-14T04:15:21.526Z,-7.70
2022-12-14T04:18:14.061Z,-7.64
2022-12-14T04:20:50.125Z,-7.70
2022-12-14T04:23:40.651Z,-7.79
2022-12-14T04:26:15.785Z,-7.77
2022-12-14T04:29:08.785Z,-7.80
2022-12-14T04:31:41.627Z,-7.89
2022-12-14T04:34:16.667Z,-8.00
2022-12-14T04:36:50.795Z,-8.11
2022-12-14T04:39:32.337Z,-8.31
2022-12-14T04:42:07.529Z,-8.42
2022-12-14T04:44:42.054Z,-8.49
2022-12-14T04:47:17.557Z,-8.47
2022-12-14T04:49:56.369Z,-8.43
2022-12-14T04:52:34.738Z,-8.49
2022-12-14T04:55:16.261Z,-8.56
2022-12-14T04:57:53.360Z,-8.56
2022-12-14T05:00:22.533Z,-8.66
2022-12-14T05:03:23.219Z,-8.73
2022-12-14T05:06:07.953Z,-8.71
2022-12-14T05:09:14.188Z,-8.67
2022-12-14T05:11:55.297Z,-8.61
2022-12-14T05:14:38.124Z,-8.50
2022-12-14T05:17:09.544Z,-8.47
2022-12-14T05:19:39.333Z,-8.45
2022-12-14T05:22:09.744Z,-8.49
2022-12-14T05:24:38.458Z,-8.45
2022-12-14T05:27:08.643Z,-8.36
2022-12-14T05:29:37.528Z,-8.46
2022-12-14T05:32:06.441Z,-8.51
2022-12-14T05:34:35.831Z,-8.47
2022-12-14T05:37:04.778Z,-8.33
2022-12-14T05:39:33.575Z,-8.43
2022-12-14T05:42:02.287Z,-8.54
2022-12-14T05:44:32.273Z,-8.65
2022-12-14T05:47:00.978Z,-8.62
2022-12-14T05:49:32.935Z,-8.51
2022-12-14T05:52:02.122Z,-8.58
2022-12-14T05:54:31.017Z,-8.75
2022-12-14T05:56:59.818Z,-8.57
2022-12-14T05:59:28.508Z,-8.62
2022-12-14T06:01:58.611Z,-8.69
2022-12-14T06:04:27.401Z,-8.65
2022-12-14T06:06:56.283Z,-8.61
2022-12-14T06:09:25.586Z,-8.61
2022-12-14T06:11:54.291Z,-8.69
2022-12-14T06:14:24.361Z,-8.79
2022-12-14T06:16:53.224Z,-8.84
2022-12-14T06:19:23.693Z,-8.85
2022-12-14T06:21:52.501Z,-8.96
2022-12-14T06:24:21.254Z,-9.02
2022-12-14T06:26:50.087Z,-8.90
2022-12-14T06:29:23.407Z,-8.69
2022-12-14T06:31:52.211Z,-8.61
2022-12-14T06:34:28.601Z,-8.62
2022-12-14T06:36:57.843Z,-8.53
2022-12-14T06:39:26.682Z,-8.48
2022-12-14T06:41:55.571Z,-8.37
2022-12-14T06:44:24.351Z,-8.35
2022-12-14T06:46:52.977Z,-8.37
2022-12-14T06:49:22.105Z,-8.42
2022-12-14T06:51:52.623Z,-8.42
2022-12-14T06:54:21.996Z,-8.47
2022-12-14T06:56:50.611Z,-8.30
2022-12-14T06:59:19.695Z,-8.21
2022-12-14T07:01:49.952Z,-8.25
2022-12-14T07:04:22.976Z,-8.21
2022-12-14T07:06:53.232Z,-8.24
2022-12-14T07:09:22.179Z,-8.14
2022-12-14T07:11:52.457Z,-8.02
2022-12-14T07:14:21.178Z,-7.95
2022-12-14T07:16:50.380Z,-7.82
2022-12-14T07:19:23.219Z,-7.83
2022-12-14T07:21:53.753Z,-7.87
2022-12-14T07:24:22.461Z,-7.95
2022-12-14T07:26:51.343Z,-8.07
2022-12-14T07:29:20.222Z,-8.09
2022-12-14T07:31:49.432Z,-8.11
2022-12-14T07:34:18.893Z,-8.04
2022-12-14T07:36:51.139Z,-8.06
2022-12-14T07:39:23.604Z,-8.04
2022-12-14T07:41:55.718Z,-8.16
2022-12-14T07:44:24.583Z,-8.22
2022-12-14T07:46:56.383Z,-8.27
2022-12-14T07:49:25.322Z,-8.22
2022-12-14T07:51:54.730Z,-8.15
2022-12-14T07:54:26.471Z,-8.12
2022-12-14T07:56:55.626Z,-8.17
2022-12-14T07:59:24.637Z,-8.19
2022-12-14T08:01:56.963Z,-8.23
2022-12-14T08:04:26.043Z,-8.17
2022-12-14T08:06:55.040Z,-8.19
2022-12-14T08:09:25.368Z,-7.81
2022-12-14T08:11:54.053Z,-7.20
2022-12-14T08:14:23.203Z,-7.47
2022-12-14T08:16:52.604Z,-7.63
2022-12-14T08:19:22.721Z,-7.64
2022-12-14T08:21:51.459Z,-7.67
2022-12-14T08:24:20.973Z,-7.63
2022-12-14T08:26:51.044Z,-7.50
2022-12-14T08:29:21.546Z,-7.48
2022-12-14T08:31:50.484Z,-7.40
2022-12-14T08:34:22.948Z,-7.21
2022-12-14T08:36:52.455Z,-7.11
2022-12-14T08:39:21.314Z,-6.95
2022-12-14T08:41:51.456Z,-6.97
2022-12-14T08:44:20.313Z,-6.86
2022-12-14T08:46:49.220Z,-6.76
2022-12-14T08:49:17.944Z,-6.60
2022-12-14T08:51:46.954Z,-6.50
2022-12-14T08:54:15.681Z,-6.41
2022-12-14T08:56:44.279Z,-6.36
2022-12-14T08:59:36.583Z,-6.24
2022-12-14T09:02:04.287Z,-6.13
2022-12-14T09:04:32.994Z,-6.04
2022-12-14T09:07:01.728Z,-5.95
2022-12-14T09:09:33.397Z,-5.87
2022-12-14T09:12:06.809Z,-5.71
2022-12-14T09:14:49.164Z,-5.62
2022-12-14T09:17:20.295Z,-5.49
2022-12-14T09:19:50.926Z,-5.35
2022-12-14T09:22:25.026Z,-5.15
2022-12-14T09:24:57.508Z,-4.96
2022-12-14T09:27:26.389Z,-4.84
2022-12-14T09:29:57.442Z,-4.75
2022-12-14T09:32:26.569Z,-4.53
2022-12-14T09:34:59.649Z,-4.48
2022-12-14T09:37:28.791Z,-4.33
2022-12-14T09:40:00.904Z,-4.26
2022-12-14T09:42:59.198Z,-4.31
2022-12-14T09:45:34.993Z,-4.34
2022-12-14T09:48:18.337Z,-4.41
2022-12-14T09:50:52.990Z,-4.27
2022-12-14T09:53:23.530Z,-4.24
2022-12-14T09:55:57.114Z,-3.95
2022-12-14T09:58:30.229Z,-3.59
2022-12-14T10:01:55.470Z,-3.35
2022-12-14T10:04:52.025Z,-3.07
2022-12-14T10:07:37.334Z,-2.51
2022-12-14T10:10:26.728Z,-2.34
2022-12-14T10:13:11.048Z,-2.26
2022-12-14T10:15:55.187Z,-1.87
2022-12-14T10:18:59.478Z,-1.86
2022-12-14T10:21:48.717Z,-1.15
2022-12-14T10:24:25.418Z,-0.93
2022-12-14T10:26:57.016Z,-0.90
2022-12-14T10:29:38.697Z,-0.59
2022-12-14T10:32:23.076Z,-0.43
2022-12-14T10:34:54.854Z,-0.31
2022-12-14T10:37:30.983Z,-0.33
2022-12-14T10:40:27.453Z,-0.29
2022-12-14T10:43:44.103Z,-0.48
2022-12-14T10:46:26.348Z,-0.18
2022-12-14T10:49:04.099Z,-0.12
2022-12-14T10:51:39.596Z,-0.14
2022-12-14T10:54:21.840Z,-0.06
2022-12-14T10:56:51.257Z,0.33
2022-12-14T10:59:50.771Z,0.43
2022-12-14T11:02:33.346Z,0.44
2022-12-14T11:05:15.016Z,0.09
2022-12-14T11:07:46.122Z,-0.01
2022-12-14T11:10:19.486Z,0.54
2022-12-14T11:13:08.004Z,0.47
2022-12-14T11:15:41.191Z,-0.06
2022-12-14T11:18:31.341Z,-0.38
2022-12-14T11:21:04.749Z,0.36
2022-12-14T11:23:40.785Z,0.64
2022-12-14T11:26:16.337Z,0.90
2022-12-14T11:28:51.464Z,0.99
2022-12-14T11:31:29.895Z,0.65
2022-12-14T11:34:01.989Z,0.89
2022-12-14T11:36:38.215Z,1.37
2022-12-14T11:39:24.209Z,1.51
2022-12-14T11:42:04.807Z,1.49
2022-12-14T11:44:37.404Z,2.17
2022-12-14T11:47:12.993Z,1.58
2022-12-14T11:49:47.515Z,0.55
2022-12-14T11:52:22.309Z,0.20
2022-12-14T11:55:20.271Z,0.59
2022-12-14T11:57:58.861Z,0.95
2022-12-14T12:00:32.274Z,0.52
2022-12-14T12:03:07.352Z,0.49
2022-12-14T12:05:42.915Z,1.08
2022-12-14T12:08:24.946Z,1.42
2022-12-14T12:11:02.821Z,1.32
2022-12-14T12:13:39.338Z,0.48
2022-12-14T12:16:17.120Z,0.09
2022-12-14T12:18:51.001Z,0.42
2022-12-14T12:21:31.692Z,0.26
2022-12-14T12:24:07.771Z,-0.34
2022-12-14T12:26:44.183Z,-0.94
2022-12-14T12:29:26.785Z,-1.42
2022-12-14T12:32:02.840Z,-1.46
2022-12-14T12:34:40.826Z,-1.41
2022-12-14T12:37:26.470Z,-1.63
2022-12-14T12:40:04.934Z,-1.84
2022-12-14T12:42:53.466Z,-2.14
2022-12-14T12:45:32.027Z,-2.19
2022-12-14T12:48:12.017Z,-2.40
2022-12-14T12:50:50.567Z,-2.52
2022-12-14T12:53:25.916Z,-2.65
2022-12-14T12:56:00.089Z,-2.72
2022-12-14T12:58:34.343Z,-2.81
2022-12-14T13:01:15.826Z,-2.88
2022-12-14T13:03:54.698Z,-2.97
2022-12-14T13:06:31.540Z,-3.10
2022-12-14T13:09:08.002Z,-3.17
2022-12-14T13:11:41.338Z,-3.22
2022-12-14T13:14:30.708Z,-3.29
2022-12-14T13:17:04.756Z,-3.34
2022-12-14T13:19:52.677Z,-3.43
2022-12-14T13:22:29.686Z,-3.46
2022-12-14T13:25:04.485Z,-3.54
2022-12-14T13:28:31.336Z,-3.65
2022-12-14T13:31:15.749Z,-3.69
2022-12-14T13:34:09.454Z,-3.79
2022-12-14T13:37:27.598Z,-3.87
2022-12-14T13:40:36.110Z,-3.97
2022-12-14T13:43:40.049Z,-4.11
2022-12-14T13:46:23.100Z,-4.14
2022-12-14T13:49:00.321Z,-4.25
2022-12-14T13:51:38.648Z,-4.20
2022-12-14T13:54:22.804Z,-4.32
2022-12-14T13:56:52.145Z,-4.34
2022-12-14T13:59:33.137Z,-4.36
2022-12-14T14:02:05.122Z,-4.41
2022-12-14T14:04:35.812Z,-4.45
2022-12-14T14:07:50.809Z,-4.54
2022-12-14T14:10:32.887Z,-4.72
2022-12-14T14:13:03.842Z,-4.72
2022-12-14T14:16:26.216Z,-4.83
2022-12-14T14:19:04.856Z,-4.90
2022-12-14T14:22:06.110Z,-4.94
2022-12-14T14:24:31.083Z,-4.93
2022-12-14T14:27:12.791Z,-4.96
2022-12-14T14:29:49.570Z,-5.06
2022-12-14T14:32:39.182Z,-5.15
2022-12-14T14:35:26.490Z,-5.27
2022-12-14T14:38:01.888Z,-5.52
2022-12-14T14:41:14.681Z,-5.54
2022-12-14T14:43:33.511Z,-5.64
2022-12-14T14:46:08.495Z,-5.84
2022-12-14T14:48:43.625Z,-5.99
2022-12-14T14:51:25.397Z,-6.01
2022-12-14T14:55:06.933Z,-6.20
2022-12-14T14:57:36.544Z,-5.95
2022-12-14T15:00:11.428Z,-6.42
2022-12-14T15:02:45.838Z,-6.72
2022-12-14T15:08:23.931Z,-7.09
2022-12-14T15:10:56.044Z,-7.24
2022-12-14T15:13:29.902Z,-7.45
2022-12-14T15:15:58.958Z,-7.58
2022-12-14T15:18:30.995Z,-7.72
2022-12-14T15:21:03.862Z,-7.82
2022-12-14T15:23:40.060Z,-7.91
2022-12-14T15:26:20.910Z,-8.15
2022-12-14T15:29:00.625Z,-8.33
2022-12-14T15:31:32.688Z,-8.30
2022-12-14T15:34:04.041Z,-8.42
2022-12-14T15:36:40.124Z,-8.45
2022-12-14T15:39:36.583Z,-8.62
2022-12-14T15:42:15.700Z,-8.61
2022-12-14T15:44:51.468Z,-8.50
2022-12-14T15:47:30.180Z,-8.19
2022-12-14T15:50:19.550Z,-8.09
2022-12-14T15:52:50.091Z,-8.06
2022-12-14T15:55:34.434Z,-8.05
2022-12-14T15:58:11.642Z,-8.22
2022-12-14T16:00:46.921Z,-8.31
2022-12-14T16:03:29.342Z,-8.15
2022-12-14T16:06:01.937Z,-7.58
2022-12-14T16:08:38.484Z,-7.41
2022-12-14T16:11:22.058Z,-7.29
2022-12-14T16:13:51.569Z,-7.14
2022-12-14T16:16:21.465Z,-7.46
2022-12-14T16:18:52.750Z,-7.97
2022-12-14T16:21:31.633Z,-8.46
2022-12-14T16:24:02.114Z,-8.76
2022-12-14T16:26:38.759Z,-9.03
2022-12-14T16:29:11.387Z,-9.30
2022-12-14T16:31:40.246Z,-9.37
2022-12-14T16:34:17.030Z,-9.53
2022-12-14T16:37:14.634Z,-9.74
2022-12-14T16:39:45.793Z,-9.79
2022-12-14T16:42:21.958Z,-9.93
2022-12-14T16:44:54.218Z,-9.95
2022-12-14T16:48:02.487Z,-9.87
2022-12-14T16:50:55.925Z,-9.85
2022-12-14T16:53:26.461Z,-9.94
2022-12-14T16:56:06.030Z,-10.06
2022-12-14T16:58:37.838Z,-10.19
2022-12-14T17:01:10.832Z,-10.35
2022-12-14T17:03:41.477Z,-10.44
2022-12-14T17:06:23.718Z,-10.60
2022-12-14T17:08:52.751Z,-10.56
2022-12-14T17:11:23.970Z,-10.32
2022-12-14T17:13:54.332Z,-10.19
2022-12-14T17:16:24.114Z,-10.14
2022-12-14T17:18:52.776Z,-10.17
2022-12-14T17:21:29.431Z,-10.25
2022-12-14T17:23:59.253Z,-10.39
2022-12-14T17:26:30.977Z,-10.40
2022-12-14T17:29:01.219Z,-10.52
2022-12-14T17:31:30.065Z,-10.49
2022-12-14T17:33:58.987Z,-10.51
2022-12-14T17:36:28.101Z,-10.55
2022-12-14T17:38:58.705Z,-10.59
2022-12-14T17:41:28.826Z,-10.67
2022-12-14T17:43:58.432Z,-10.67
2022-12-14T17:46:29.641Z,-10.62
2022-12-14T17:49:02.850Z,-10.70
2022-12-14T17:51:42.183Z,-10.78
2022-12-14T17:54:17.659Z,-10.72
2022-12-14T17:56:48.000Z,-10.66
2022-12-14T17:59:17.061Z,-10.53
2022-12-14T18:01:47.844Z,-10.47
2022-12-14T18:04:18.429Z,-10.48
2022-12-14T18:06:47.004Z,-10.51
2022-12-14T18:09:16.255Z,-10.54
2022-12-14T18:12:00.541Z,-10.43
2022-12-14T18:14:33.770Z,-10.45
2022-12-14T18:17:08.242Z,-10.48
2022-12-14T18:19:40.420Z,-10.48
2022-12-14T18:22:09.800Z,-10.62
2022-12-14T18:24:38.595Z,-10.75
2022-12-14T18:27:07.699Z,-10.83
2022-12-14T18:29:36.483Z,-10.70
2022-12-14T18:32:07.307Z,-10.08
2022-12-14T18:34:36.349Z,-9.86
2022-12-14T18:37:05.192Z,-9.45
2022-12-14T18:39:37.022Z,-9.11
2022-12-14T18:42:05.867Z,-9.03
2022-12-14T18:44:34.495Z,-8.86
2022-12-14T18:47:26.693Z,-8.68
2022-12-14T18:49:53.889Z,-8.53
2022-12-14T18:52:22.594Z,-8.56
2022-12-14T18:54:54.311Z,-8.56
2022-12-14T18:57:22.910Z,-8.45
2022-12-14T18:59:51.725Z,-8.42
2022-12-14T19:02:20.845Z,-8.35
2022-12-14T19:04:50.026Z,-8.27
2022-12-14T19:07:20.066Z,-7.99
2022-12-14T19:09:48.819Z,-7.78
2022-12-14T19:12:17.568Z,-7.58
2022-12-14T19:14:49.349Z,-7.51
2022-12-14T19:17:18.269Z,-7.62
2022-12-14T19:19:46.789Z,-7.52
2022-12-14T19:22:15.589Z,-7.66
2022-12-14T19:24:52.142Z,-7.83
2022-12-14T19:27:42.642Z,-7.91
2022-12-14T19:30:16.534Z,-7.93
2022-12-14T19:32:45.300Z,-7.88
2022-12-14T19:35:17.914Z,-7.81
2022-12-14T19:37:46.662Z,-7.96
2022-12-14T19:40:17.734Z,-7.94
2022-12-14T19:42:47.049Z,-8.00
2022-12-14T19:45:16.734Z,-7.96
2022-12-14T19:47:45.446Z,-7.92
2022-12-14T19:50:17.317Z,-7.90
2022-12-14T19:52:46.017Z,-8.03
2022-12-14T19:55:16.016Z,-7.95
2022-12-14T19:57:44.660Z,-7.96
2022-12-14T20:00:14.600Z,-8.00
2022-12-14T20:02:46.347Z,-8.00
2022-12-14T20:05:19.142Z,-8.11
2022-12-14T20:07:47.805Z,-8.15
2022-12-14T20:10:18.140Z,-8.28
2022-12-14T20:12:46.783Z,-8.34
2022-12-14T20:15:15.504Z,-8.23
2022-12-14T20:17:44.081Z,-8.24
2022-12-14T20:20:13.497Z,-8.25
2022-12-14T20:22:42.411Z,-8.20
2022-12-14T20:25:13.655Z,-8.18
2022-12-14T20:27:43.991Z,-8.25
2022-12-14T20:30:13.874Z,-8.39
2022-12-14T20:32:42.543Z,-8.41
2022-12-14T20:35:12.236Z,-8.42
2022-12-14T20:37:41.128Z,-8.19
2022-12-14T20:40:12.464Z,-8.04
2022-12-14T20:42:42.636Z,-8.00
2022-12-14T20:45:11.968Z,-7.95
2022-12-14T20:47:40.765Z,-7.90
2022-12-14T20:50:09.746Z,-7.85
2022-12-14T20:52:38.643Z,-7.76
2022-12-14T20:55:08.230Z,-7.80
2022-12-14T20:57:37.051Z,-7.84
2022-12-14T21:00:08.887Z,-7.78
2022-12-14T21:02:37.679Z,-7.73
2022-12-14T21:05:07.664Z,-7.78
2022-12-14T21:07:39.557Z,-7.68
2022-12-14T21:10:10.080Z,-7.65
2022-12-14T21:12:38.793Z,-7.59
2022-12-14T21:15:10.383Z,-7.65
2022-12-14T21:17:39.309Z,-7.78
2022-12-14T21:20:09.410Z,-7.78
2022-12-14T21:22:38.106Z,-7.87
2022-12-14T21:25:08.010Z,-7.99
2022-12-14T21:27:39.674Z,-8.06
2022-12-14T21:30:13.165Z,-8.20
2022-12-14T21:32:42.045Z,-8.37
2022-12-14T21:35:13.290Z,-8.41
2022-12-14T21:37:42.264Z,-8.48
2022-12-14T21:40:32.106Z,-8.48
2022-12-14T21:42:59.727Z,-8.44
2022-12-14T21:45:29.941Z,-8.49
2022-12-14T21:47:58.636Z,-8.66
2022-12-14T21:50:27.327Z,-8.78
2022-12-14T21:52:55.905Z,-8.90
2022-12-14T21:55:24.512Z,-8.79
2022-12-14T21:58:10.429Z,-8.60
2022-12-14T22:00:40.818Z,-8.47
2022-12-14T22:03:09.569Z,-8.14
2022-12-14T22:05:40.037Z,-8.20
2022-12-14T22:08:08.631Z,-8.09
2022-12-14T22:10:37.242Z,-8.08
2022-12-14T22:13:06.145Z,-8.09
2022-12-14T22:15:34.772Z,-8.14
2022-12-14T22:18:05.059Z,-8.18
2022-12-14T22:20:34.611Z,-8.28
2022-12-14T22:23:03.357Z,-8.30
2022-12-14T22:25:32.001Z,-8.29
2022-12-14T22:28:00.615Z,-8.44
2022-12-14T22:30:31.793Z,-8.46
2022-12-14T22:33:00.712Z,-8.63
2022-12-14T22:35:30.868Z,-8.85
2022-12-14T22:38:01.017Z,-9.08
2022-12-14T22:40:31.755Z,-8.97
2022-12-14T22:43:01.066Z,-8.83
2022-12-14T22:45:29.685Z,-8.70
2022-12-14T22:47:58.298Z,-8.71
2022-12-14T22:50:26.937Z,-8.52
2022-12-14T22:52:56.931Z,-8.34
2022-12-14T22:55:25.914Z,-8.35
2022-12-14T22:57:56.262Z,-8.50
2022-12-14T23:00:25.215Z,-8.67
2022-12-14T23:02:53.974Z,-8.74
2022-12-14T23:05:22.924Z,-8.79
2022-12-14T23:07:53.444Z,-8.88
2022-12-14T23:10:41.048Z,-8.98
2022-12-14T23:13:27.277Z,-9.23
2022-12-14T23:16:13.816Z,-9.45
2022-12-14T23:19:03.134Z,-9.55
2022-12-14T23:21:49.410Z,-9.60
2022-12-14T23:24:35.681Z,-9.26
2022-12-14T23:27:23.396Z,-9.04
2022-12-14T23:30:09.573Z,-9.05
2022-12-14T23:32:55.743Z,-8.96
2022-12-14T23:35:41.968Z,-8.88
2022-12-14T23:38:28.858Z,-8.78
2022-12-14T23:41:18.976Z,-8.64
2022-12-14T23:44:06.642Z,-8.60
2022-12-14T23:46:52.830Z,-8.56
2022-12-14T23:49:38.939Z,-8.50
2022-12-14T23:52:25.024Z,-8.47
2022-12-14T23:55:11.137Z,-8.52
2022-12-14T23:57:57.178Z,-8.63
